Overview Statistics Trail Chart Weather Telemetry Raw packets
 

This is the latest recevied packets stored in our database for station/object DF4ND-99. If no packets are shown the sender has not sent any packets the latest 24 hours.

If you compare the raw packets with similar data from other websites it may differ (especially the path), the reason is that we are not collecting packets from the same APRS-IS servers. Each APRS-IS server performes duplicate filtering, and which packet that is considered to be a duplicate may differ depending on which APRS-IS server you receive your data from.

<< 1 2 3 4 >>

1788693044: DF4ND-99>APRSGW,TCPIP*,qAR,DF4ND-99:T#526,983.4,26.4,38.0,531,25.8,00000000

1788693044: DF4ND-99>APRSGW,TCPIP*,qAR,DF4ND-99:!4929.17N/01040.16E#/A=001260/N5

1788691214: DF4ND-99>APRSGW,TCPIP*,qAR,DF4ND-99:!4929.17N/01040.16E#/A=001260/N5

1788691214: DF4ND-99>APRSGW,TCPIP*,qAR,DF4ND-99:T#525,983.7,25.7,38.1,552,25.1,00000000

1788689390: DF4ND-99>APRSMC,TCPIP*,qAR,DB0NH-3:T#942,984.0,24.9,38.3,574,24.5,00000000

1788689390: DF4ND-99>APRSMC,TCPIP*,qAR,DB0NH-3:!4929.17N/01040.16E#/A=001260/N5

1788689384: DF4ND-99>APRSGW,TCPIP*,qAR,DF4ND-99:T#524,984.0,24.9,38.3,574,24.5,00000000

1788689384: DF4ND-99>APRSGW,TCPIP*,qAR,DF4ND-99:!4929.17N/01040.16E#/A=001260/N5

1788687568: DF4ND-99>APRSMC,TCPIP*,qAR,DB0NH-3::DF4ND-99 :PARM.Press,Temp.in,Hum,eGAS,Temp.out,track,-,-,-,-,-,-,-

1788687568: DF4ND-99>APRSMC,TCPIP*,qAR,DB0NH-3:T#941,984.1,24.6,38.2,585,24.1,00000000

1788687568: DF4ND-99>APRSMC,TCPIP*,qAR,DB0NH-3::DF4ND-99 :EQNS.0,1,0,0,1,0,0,1,0,0,1,0,0,1,0

1788687568: DF4ND-99>APRSMC,TCPIP*,qAR,DB0NH-3::DF4ND-99 :UNIT.hPa,C deg,%,-,C deg,Y/N,O/N,O/N,O/N,O/N,O/N,O/N,O/N

1788687568: DF4ND-99>APRSMC,TCPIP*,qAR,DB0NH-3:!4929.17N/01040.16E#/A=001260/N5

1788687554: DF4ND-99>APRSGW,TCPIP*,qAR,DF4ND-99:T#523,984.1,24.6,38.2,585,24.1,00000000

1788687554: DF4ND-99>APRSGW,TCPIP*,qAR,DF4ND-99:!4929.17N/01040.16E#/A=001260/N5

1788685723: DF4ND-99>APRSGW,TCPIP*,qAR,DF4ND-99:T#522,984.2,24.3,38.0,593,23.6,00000000

1788685723: DF4ND-99>APRSGW,TCPIP*,qAR,DF4ND-99:!4929.17N/01040.16E#/A=001260/N5

1788683893: DF4ND-99>APRSGW,TCPIP*,qAR,DF4ND-99::DF4ND-99 :EQNS.0,1,0,0,1,0,0,1,0,0,1,0,0,1,0

1788683893: DF4ND-99>APRSGW,TCPIP*,qAR,DF4ND-99::DF4ND-99 :PARM.Press,Temp.in,Hum,eGAS,Temp.out,track,-,-,-,-,-,-,-

1788683893: DF4ND-99>APRSGW,TCPIP*,qAR,DF4ND-99::DF4ND-99 :UNIT.hPa,C deg,%,-,C deg,Y/N,O/N,O/N,O/N,O/N,O/N,O/N,O/N

1788683893: DF4ND-99>APRSGW,TCPIP*,qAR,DF4ND-99:T#521,984.3,23.9,38.0,601,23.2,00000000

1788683893: DF4ND-99>APRSGW,TCPIP*,qAR,DF4ND-99:!4929.17N/01040.16E#/A=001260/N5

1788682063: DF4ND-99>APRSGW,TCPIP*,qAR,DF4ND-99:T#520,984.2,23.8,37.7,611,23.0,00000000

1788682063: DF4ND-99>APRSGW,TCPIP*,qAR,DF4ND-99:!4929.17N/01040.16E#/A=001260/N6

1788680268: DF4ND-99>APRSMC,TCPIP*,qAR,DB0NH-3:T#940,984.3,23.5,37.8,622,22.8,00000000